RJCB

Tokachi-Obihiro Airport

Obihiro, Japan
TAF RJCB 261107Z 2612/2718 18005KT 9999 FEW050 BECMG 2622/2700 33010KT TEMPO 2703/2709 33018G28KT BECMG 2712/2715 15004KT
Issued Valid From Valid To
Apr-26 @ 11:07 UTC
(3 hours ago)
Apr-26 @ 12:00 UTC
(2 hours ago)
Apr-27 @ 18:00 UTC
(-1 days ago)
Apr-26 @ 12:00 to Apr-26 @ 22:00
TAF RJCB 261107Z 2612/2718 18005KT 9999 FEW050
Wind Visibility Clouds
180° at 5 knots 10,000+ meters
  • Few at 5,000' AGL
Becoming Apr-26 @ 22:00 to Apr-27 @ 12:00
BECMG 2622/2700 33010KT
Wind Visibility Clouds
330° at 10 knots 10,000+ meters
  • Few at 5,000' AGL
Temporary Apr-27 @ 03:00 to Apr-27 @ 09:00
TEMPO 2703/2709 33018G28KT
Wind
330° at 18 knots
 Gusting to 28 knots
Becoming Apr-27 @ 12:00 to Apr-27 @ 18:00
BECMG 2712/2715 15004KT
Wind Visibility Clouds
150° at 4 knots 10,000+ meters
  • Few at 5,000' AGL
TAF RJCB 261107Z 2612/2718 18005KT 9999 FEW050 BECMG 2622/2700 33010KT TEMPO 2703/2709 33018G28KT BECMG 2712/2715 15004KT
Issued Apr-26 @ 11:07 UTC
(3 hours ago)
Valid From Apr-26 @ 12:00 UTC
(2 hours ago)
Valid To Apr-27 @ 18:00 UTC
(-1 days ago)
Apr-26 @ 12:00 - Apr-26 @ 22:00
Wind Visibility
180° at 5 knots 10,000+ meters
Clouds
  • Few at 5,000' AGL
Becoming Apr-26 @ 22:00 - Apr-27 @ 12:00
Wind Visibility
330° at 10 knots 10,000+ meters
Clouds
  • Few at 5,000' AGL
Temporary Apr-27 @ 03:00 - Apr-27 @ 09:00
Wind
330° at 18 knots
 Gusting to 28 knots
Becoming Apr-27 @ 12:00 - Apr-27 @ 18:00
Wind Visibility
150° at 4 knots 10,000+ meters
Clouds
  • Few at 5,000' AGL